Main page
METAR-TAF:

METAR-TAF

Airports :

Farnborough Airport

Farnborough, England

latitude: 51-17N, longitude: 000-46W, elevation: 65 m

Current weather observation

The report was made 3 hours and 6 minutes ago, at 18:20 UTC
Wind 7 kt from the East
Temperature 19°C
Humidity 52%
Pressure 1019 hPa
Visibility 10 km or more
Few clouds at a height of 4900 ft

METAR: EGLF 201820Z 10007KT 9999 FEW049 19/09 Q1019

Time: 22:26 (21:26 UTC)

Forecast

The report was made 7 hours and 24 minutes ago, at 14:02 UTC
Forecast valid from 20 at 15 UTC to 20 at 19 UTC
Wind 5 kt from the East/Southeast
Visibility 10 km or more
Few clouds at a height of 4000 ft

TAF: EGLF 201402Z 2015/2019 11005KT 9999 FEW040

Weather observations and forecasts of more than 4000 airports (METAR and TAF reports).

The available stations are represented by yellow and red dots on the map.

Hover mouse over dot to see the name of the station.

Then click to see weather observations and forecasts.

To change the map : click on the green buttons with a black cross to zoom in, on the green button with a dash to zoom out, or on the green arrows for adjacent maps.


METAR-TAF: